Terminal Aerodrome Forecast
Issued by NWS

Home | Current Version | Previous Version | Graphics & Text | Print | Product List | Glossary On
Versions: 1 2 3 4 5 6 7 8 9 10 11 12 13 14 15 16 17 18 19 20 21 22 23 24
000
FTUS43 KMPX 220400 AAB
TAFAXN
TAF AMD
KAXN 220428Z 2204/2224 35010KT 3SM +TSRA OVC025CB
     FM220450 35008KT 5SM -SHRA OVC030
     FM220800 26005KT 6SM BR SCT030 BKN080
     FM221000 30009G16KT P6SM SCT030 BKN080
     FM221300 32017G24KT P6SM SCT020 BKN250=

USA.gov is the U.S. government's official web portal to all federal, state and local government web resources and services.